sensor_id;sensor_type;location;lat;lon;timestamp;pressure;altitude;pressure_sealevel;temperature;humidity
7157;BME280;3620;49.862;8.758;2022-12-07T00:00:19;99366.94;;;5.08;100.00
7157;BME280;3620;49.862;8.758;2022-12-07T00:02:45;99363.72;;;4.96;100.00
7157;BME280;3620;49.862;8.758;2022-12-07T00:05:12;99361.13;;;4.96;100.00
7157;BME280;3620;49.862;8.758;2022-12-07T00:07:38;99366.34;;;4.96;100.00
7157;BME280;3620;49.862;8.758;2022-12-07T00:10:06;99365.47;;;4.97;100.00
7157;BME280;3620;49.862;8.758;2022-12-07T00:12:33;99354.34;;;4.89;100.00
7157;BME280;3620;49.862;8.758;2022-12-07T00:15:00;99362.03;;;4.95;100.00
7157;BME280;3620;49.862;8.758;2022-12-07T00:17:27;99354.25;;;4.92;100.00
7157;BME280;3620;49.862;8.758;2022-12-07T00:19:53;99349.97;;;4.89;100.00
7157;BME280;3620;49.862;8.758;2022-12-07T00:22:20;99343.84;;;4.92;100.00
7157;BME280;3620;49.862;8.758;2022-12-07T00:24:46;99344.59;;;4.97;100.00
7157;BME280;3620;49.862;8.758;2022-12-07T00:27:13;99342.25;;;4.85;100.00
7157;BME280;3620;49.862;8.758;2022-12-07T00:29:39;99338.63;;;4.92;100.00
7157;BME280;3620;49.862;8.758;2022-12-07T00:32:07;99338.75;;;4.86;100.00
7157;BME280;3620;49.862;8.758;2022-12-07T00:34:34;99339.63;;;4.85;100.00
7157;BME280;3620;49.862;8.758;2022-12-07T00:37:00;99337.03;;;4.85;100.00
7157;BME280;3620;49.862;8.758;2022-12-07T00:39:26;99327.63;;;4.78;100.00
7157;BME280;3620;49.862;8.758;2022-12-07T00:41:53;99324.31;;;4.70;100.00
7157;BME280;3620;49.862;8.758;2022-12-07T00:44:19;99323.31;;;4.77;100.00
7157;BME280;3620;49.862;8.758;2022-12-07T00:46:46;99319.78;;;4.79;100.00
7157;BME280;3620;49.862;8.758;2022-12-07T00:49:14;99327.75;;;4.72;100.00
7157;BME280;3620;49.862;8.758;2022-12-07T00:51:40;99316.59;;;4.65;100.00
7157;BME280;3620;49.862;8.758;2022-12-07T00:54:07;99315.66;;;4.69;100.00
7157;BME280;3620;49.862;8.758;2022-12-07T00:56:33;99317.38;;;4.70;100.00
7157;BME280;3620;49.862;8.758;2022-12-07T00:59:01;99307.91;;;4.65;100.00
7157;BME280;3620;49.862;8.758;2022-12-07T01:01:30;99313.09;;;4.68;100.00
7157;BME280;3620;49.862;8.758;2022-12-07T01:03:57;99314.91;;;4.63;100.00
7157;BME280;3620;49.862;8.758;2022-12-07T01:06:25;99310.59;;;4.62;100.00
7157;BME280;3620;49.862;8.758;2022-12-07T01:08:52;99309.66;;;4.66;100.00
7157;BME280;3620;49.862;8.758;2022-12-07T01:11:20;99300.94;;;4.67;100.00
7157;BME280;3620;49.862;8.758;2022-12-07T01:13:49;99303.56;;;4.65;100.00
7157;BME280;3620;49.862;8.758;2022-12-07T01:16:17;99297.41;;;4.71;100.00
7157;BME280;3620;49.862;8.758;2022-12-07T01:18:46;99301.69;;;4.72;100.00
7157;BME280;3620;49.862;8.758;2022-12-07T01:21:14;99299.19;;;4.67;100.00
7157;BME280;3620;49.862;8.758;2022-12-07T01:23:43;99307.72;;;4.75;100.00
7157;BME280;3620;49.862;8.758;2022-12-07T01:26:12;99309.38;;;4.78;100.00
7157;BME280;3620;49.862;8.758;2022-12-07T01:28:39;99301.69;;;4.73;100.00
7157;BME280;3620;49.862;8.758;2022-12-07T01:31:08;99300.69;;;4.79;100.00
7157;BME280;3620;49.862;8.758;2022-12-07T01:33:36;99297.13;;;4.83;100.00
7157;BME280;3620;49.862;8.758;2022-12-07T01:36:03;99305.03;;;4.80;100.00
7157;BME280;3620;49.862;8.758;2022-12-07T01:38:31;99309.97;;;4.92;100.00
7157;BME280;3620;49.862;8.758;2022-12-07T01:41:00;99318.75;;;4.88;100.00
7157;BME280;3620;49.862;8.758;2022-12-07T01:43:30;99315.16;;;4.92;100.00
7157;BME280;3620;49.862;8.758;2022-12-07T01:45:57;99314.34;;;4.90;100.00
7157;BME280;3620;49.862;8.758;2022-12-07T01:48:26;99326.50;;;4.91;100.00
7157;BME280;3620;49.862;8.758;2022-12-07T01:50:55;99317.78;;;4.92;100.00
7157;BME280;3620;49.862;8.758;2022-12-07T01:53:24;99321.19;;;4.94;100.00
7157;BME280;3620;49.862;8.758;2022-12-07T01:55:52;99314.41;;;4.87;100.00
7157;BME280;3620;49.862;8.758;2022-12-07T01:58:20;99306.59;;;4.87;100.00
7157;BME280;3620;49.862;8.758;2022-12-07T02:00:47;99312.50;;;4.95;100.00
7157;BME280;3620;49.862;8.758;2022-12-07T02:03:17;99312.47;;;4.96;100.00
7157;BME280;3620;49.862;8.758;2022-12-07T02:05:46;99312.56;;;4.92;100.00
7157;BME280;3620;49.862;8.758;2022-12-07T02:08:16;99304.88;;;4.86;100.00
7157;BME280;3620;49.862;8.758;2022-12-07T02:10:43;99303.28;;;4.79;100.00
7157;BME280;3620;49.862;8.758;2022-12-07T02:13:11;99298.88;;;4.82;100.00
7157;BME280;3620;49.862;8.758;2022-12-07T02:16:01;99295.28;;;4.88;100.00
7157;BME280;3620;49.862;8.758;2022-12-07T02:18:39;99294.50;;;4.84;100.00
7157;BME280;3620;49.862;8.758;2022-12-07T02:21:11;99292.78;;;4.83;100.00
7157;BME280;3620;49.862;8.758;2022-12-07T02:23:49;99286.78;;;4.80;100.00
7157;BME280;3620;49.862;8.758;2022-12-07T02:29:39;99275.66;;;4.72;100.00
7157;BME280;3620;49.862;8.758;2022-12-07T02:32:14;99280.75;;;4.76;100.00
7157;BME280;3620;49.862;8.758;2022-12-07T02:34:48;99273.84;;;4.75;100.00
7157;BME280;3620;49.862;8.758;2022-12-07T02:37:21;99272.91;;;4.78;100.00
7157;BME280;3620;49.862;8.758;2022-12-07T02:39:55;99271.25;;;4.74;100.00
7157;BME280;3620;49.862;8.758;2022-12-07T02:42:30;99278.13;;;4.78;100.00
7157;BME280;3620;49.862;8.758;2022-12-07T02:45:00;99272.06;;;4.77;100.00
7157;BME280;3620;49.862;8.758;2022-12-07T02:47:28;99263.47;;;4.72;100.00
7157;BME280;3620;49.862;8.758;2022-12-07T02:49:55;99272.09;;;4.76;100.00
7157;BME280;3620;49.862;8.758;2022-12-07T02:52:22;99257.28;;;4.78;100.00
7157;BME280;3620;49.862;8.758;2022-12-07T02:54:48;99259.88;;;4.78;100.00
7157;BME280;3620;49.862;8.758;2022-12-07T02:57:38;99254.66;;;4.79;100.00
7157;BME280;3620;49.862;8.758;2022-12-07T03:00:12;99256.44;;;4.77;100.00
7157;BME280;3620;49.862;8.758;2022-12-07T03:02:50;99261.66;;;4.76;100.00
7157;BME280;3620;49.862;8.758;2022-12-07T03:05:34;99257.06;;;4.87;100.00
7157;BME280;3620;49.862;8.758;2022-12-07T03:08:06;99258.13;;;4.80;100.00
7157;BME280;3620;49.862;8.758;2022-12-07T03:10:42;99249.44;;;4.79;100.00
7157;BME280;3620;49.862;8.758;2022-12-07T03:13:21;99256.34;;;4.80;100.00
7157;BME280;3620;49.862;8.758;2022-12-07T03:15:55;99252.16;;;4.75;100.00
7157;BME280;3620;49.862;8.758;2022-12-07T03:18:25;99249.50;;;4.76;100.00
7157;BME280;3620;49.862;8.758;2022-12-07T03:20:57;99251.22;;;4.77;100.00
7157;BME280;3620;49.862;8.758;2022-12-07T03:23:25;99244.13;;;4.82;100.00
7157;BME280;3620;49.862;8.758;2022-12-07T03:25:55;99253.03;;;4.74;100.00
7157;BME280;3620;49.862;8.758;2022-12-07T03:28:27;99252.41;;;4.63;100.00
7157;BME280;3620;49.862;8.758;2022-12-07T03:31:01;99252.53;;;4.57;100.00
7157;BME280;3620;49.862;8.758;2022-12-07T03:33:34;99261.22;;;4.56;100.00
7157;BME280;3620;49.862;8.758;2022-12-07T03:36:06;99255.22;;;4.52;100.00
7157;BME280;3620;49.862;8.758;2022-12-07T03:38:38;99262.41;;;4.41;100.00
7157;BME280;3620;49.862;8.758;2022-12-07T03:41:10;99253.03;;;4.32;100.00
7157;BME280;3620;49.862;8.758;2022-12-07T03:43:39;99250.84;;;4.11;100.00
7157;BME280;3620;49.862;8.758;2022-12-07T03:46:16;99241.34;;;4.10;100.00
7157;BME280;3620;49.862;8.758;2022-12-07T03:48:53;99251.09;;;3.99;100.00
7157;BME280;3620;49.862;8.758;2022-12-07T03:51:26;99247.72;;;3.94;100.00
7157;BME280;3620;49.862;8.758;2022-12-07T03:53:59;99238.22;;;3.93;100.00
7157;BME280;3620;49.862;8.758;2022-12-07T03:56:28;99241.47;;;4.04;100.00
7157;BME280;3620;49.862;8.758;2022-12-07T03:58:55;99238.88;;;4.03;100.00
7157;BME280;3620;49.862;8.758;2022-12-07T04:01:24;99243.38;;;3.95;100.00
7157;BME280;3620;49.862;8.758;2022-12-07T04:03:51;99246.75;;;3.98;100.00
7157;BME280;3620;49.862;8.758;2022-12-07T04:06:17;99247.66;;;3.97;100.00
7157;BME280;3620;49.862;8.758;2022-12-07T04:08:44;99251.13;;;3.96;100.00
7157;BME280;3620;49.862;8.758;2022-12-07T04:11:10;99243.34;;;3.96;100.00
7157;BME280;3620;49.862;8.758;2022-12-07T04:13:37;99239.03;;;3.94;100.00
7157;BME280;3620;49.862;8.758;2022-12-07T04:16:17;99243.34;;;3.96;100.00
7157;BME280;3620;49.862;8.758;2022-12-07T04:18:45;99240.03;;;3.88;100.00
7157;BME280;3620;49.862;8.758;2022-12-07T04:21:12;99234.00;;;3.86;100.00
7157;BME280;3620;49.862;8.758;2022-12-07T04:23:38;99236.47;;;3.92;100.00
7157;BME280;3620;49.862;8.758;2022-12-07T04:26:05;99236.47;;;3.92;100.00
7157;BME280;3620;49.862;8.758;2022-12-07T04:28:31;99232.28;;;3.85;100.00
7157;BME280;3620;49.862;8.758;2022-12-07T04:30:58;99236.47;;;3.92;100.00
7157;BME280;3620;49.862;8.758;2022-12-07T04:33:24;99234.81;;;3.88;100.00
7157;BME280;3620;49.862;8.758;2022-12-07T04:35:52;99236.31;;;4.01;100.00
7157;BME280;3620;49.862;8.758;2022-12-07T04:38:18;99243.47;;;3.90;100.00
7157;BME280;3620;49.862;8.758;2022-12-07T04:40:45;99243.59;;;3.84;100.00
7157;BME280;3620;49.862;8.758;2022-12-07T04:43:11;99240.91;;;3.89;100.00
7157;BME280;3620;49.862;8.758;2022-12-07T04:45:38;99238.22;;;3.93;100.00
7157;BME280;3620;49.862;8.758;2022-12-07T04:48:04;99231.22;;;3.95;100.00
7157;BME280;3620;49.862;8.758;2022-12-07T04:50:31;99232.19;;;3.90;100.00
7157;BME280;3620;49.862;8.758;2022-12-07T04:52:59;99233.00;;;3.93;100.00
7157;BME280;3620;49.862;8.758;2022-12-07T04:55:25;99239.91;;;3.94;100.00
7157;BME280;3620;49.862;8.758;2022-12-07T04:57:52;99241.56;;;3.98;100.00
7157;BME280;3620;49.862;8.758;2022-12-07T05:00:19;99237.25;;;3.97;100.00
7157;BME280;3620;49.862;8.758;2022-12-07T05:02:45;99226.81;;;3.99;100.00
7157;BME280;3620;49.862;8.758;2022-12-07T05:05:12;99231.09;;;4.01;100.00
7157;BME280;3620;49.862;8.758;2022-12-07T05:07:38;99227.69;;;3.99;100.00
7157;BME280;3620;49.862;8.758;2022-12-07T05:10:07;99232.81;;;4.02;100.00
7157;BME280;3620;49.862;8.758;2022-12-07T05:12:34;99225.03;;;4.01;100.00
7157;BME280;3620;49.862;8.758;2022-12-07T05:15:00;99231.06;;;4.04;100.00
7157;BME280;3620;49.862;8.758;2022-12-07T05:17:27;99224.13;;;4.03;100.00
7157;BME280;3620;49.862;8.758;2022-12-07T05:19:55;99224.13;;;4.03;100.00
7157;BME280;3620;49.862;8.758;2022-12-07T05:22:22;99232.63;;;4.11;100.00
7157;BME280;3620;49.862;8.758;2022-12-07T05:24:50;99224.13;;;4.03;100.00
7157;BME280;3620;49.862;8.758;2022-12-07T05:27:18;99224.91;;;4.07;100.00
7157;BME280;3620;49.862;8.758;2022-12-07T05:29:44;99231.94;;;4.03;100.00
7157;BME280;3620;49.862;8.758;2022-12-07T05:32:11;99226.59;;;4.09;100.00
7157;BME280;3620;49.862;8.758;2022-12-07T05:34:38;99220.69;;;4.01;100.00
7157;BME280;3620;49.862;8.758;2022-12-07T05:37:04;99220.56;;;4.07;100.00
7157;BME280;3620;49.862;8.758;2022-12-07T05:39:31;99219.59;;;4.11;100.00
7157;BME280;3620;49.862;8.758;2022-12-07T05:41:57;99216.53;;;4.35;100.00
7157;BME280;3620;49.862;8.758;2022-12-07T05:44:41;99219.16;;;4.34;100.00
7157;BME280;3620;49.862;8.758;2022-12-07T05:47:08;99225.34;;;4.28;100.00
7157;BME280;3620;49.862;8.758;2022-12-07T05:49:37;99225.53;;;4.19;100.00
7157;BME280;3620;49.862;8.758;2022-12-07T05:52:05;99220.44;;;4.15;100.00
7157;BME280;3620;49.862;8.758;2022-12-07T05:54:31;99223.94;;;4.12;100.00
7157;BME280;3620;49.862;8.758;2022-12-07T05:56:58;99223.06;;;4.12;100.00
7157;BME280;3620;49.862;8.758;2022-12-07T05:59:25;99225.63;;;4.13;100.00
7157;BME280;3620;49.862;8.758;2022-12-07T06:01:55;99229.09;;;4.15;100.00
7157;BME280;3620;49.862;8.758;2022-12-07T06:04:23;99221.28;;;4.15;100.00
7157;BME280;3620;49.862;8.758;2022-12-07T06:06:50;99218.44;;;4.27;100.00
7157;BME280;3620;49.862;8.758;2022-12-07T06:09:17;99220.03;;;4.34;100.00
7157;BME280;3620;49.862;8.758;2022-12-07T06:11:44;99222.53;;;4.39;100.00
7157;BME280;3620;49.862;8.758;2022-12-07T06:14:28;99220.75;;;4.41;100.00
7157;BME280;3620;49.862;8.758;2022-12-07T06:16:56;99215.56;;;4.39;100.00
7157;BME280;3620;49.862;8.758;2022-12-07T06:19:23;99214.56;;;4.45;100.00
7157;BME280;3620;49.862;8.758;2022-12-07T06:21:49;99225.09;;;4.40;100.00
7157;BME280;3620;49.862;8.758;2022-12-07T06:24:16;99219.81;;;4.43;100.00
7157;BME280;3620;49.862;8.758;2022-12-07T06:26:43;99223.25;;;4.45;100.00
7157;BME280;3620;49.862;8.758;2022-12-07T06:29:10;99217.16;;;4.47;100.00
7157;BME280;3620;49.862;8.758;2022-12-07T06:31:37;99222.34;;;4.48;100.00
7157;BME280;3620;49.862;8.758;2022-12-07T06:34:06;99222.28;;;4.51;100.00
7157;BME280;3620;49.862;8.758;2022-12-07T06:36:33;99226.53;;;4.54;100.00
7157;BME280;3620;49.862;8.758;2022-12-07T06:39:00;99233.53;;;4.52;100.00
7157;BME280;3620;49.862;8.758;2022-12-07T06:41:26;99229.78;;;4.65;100.00
7157;BME280;3620;49.862;8.758;2022-12-07T06:43:53;99229.91;;;4.59;100.00
7157;BME280;3620;49.862;8.758;2022-12-07T06:46:20;99228.03;;;4.65;100.00
7157;BME280;3620;49.862;8.758;2022-12-07T06:48:46;99227.34;;;4.57;100.00
7157;BME280;3620;49.862;8.758;2022-12-07T06:51:14;99231.56;;;4.63;100.00
7157;BME280;3620;49.862;8.758;2022-12-07T06:53:41;99226.53;;;4.55;100.00
7157;BME280;3620;49.862;8.758;2022-12-07T06:56:07;99228.00;;;4.67;100.00
7157;BME280;3620;49.862;8.758;2022-12-07T06:58:34;99228.13;;;4.61;100.00
7157;BME280;3620;49.862;8.758;2022-12-07T07:01:00;99228.84;;;4.67;100.00
7157;BME280;3620;49.862;8.758;2022-12-07T07:03:28;99227.31;;;4.59;100.00
7157;BME280;3620;49.862;8.758;2022-12-07T07:05:54;99233.34;;;4.61;100.00
7157;BME280;3620;49.862;8.758;2022-12-07T07:08:22;99233.34;;;4.61;100.00
7157;BME280;3620;49.862;8.758;2022-12-07T07:10:49;99226.28;;;4.66;100.00
7157;BME280;3620;49.862;8.758;2022-12-07T07:13:16;99235.06;;;4.62;100.00
7157;BME280;3620;49.862;8.758;2022-12-07T07:15:42;99235.31;;;4.50;100.00
7157;BME280;3620;49.862;8.758;2022-12-07T07:18:09;99238.75;;;4.52;100.00
7157;BME280;3620;49.862;8.758;2022-12-07T07:20:36;99241.25;;;4.58;100.00
7157;BME280;3620;49.862;8.758;2022-12-07T07:23:03;99241.97;;;4.63;100.00
7157;BME280;3620;49.862;8.758;2022-12-07T07:25:32;99242.16;;;4.54;100.00
7157;BME280;3620;49.862;8.758;2022-12-07T07:27:58;99240.38;;;4.56;100.00
7157;BME280;3620;49.862;8.758;2022-12-07T07:30:25;99242.94;;;4.59;100.00
7157;BME280;3620;49.862;8.758;2022-12-07T07:32:56;99249.69;;;4.67;100.00
7157;BME280;3620;49.862;8.758;2022-12-07T07:35:22;99245.31;;;4.69;100.00
7157;BME280;3620;49.862;8.758;2022-12-07T07:37:49;99246.22;;;4.67;100.00
7157;BME280;3620;49.862;8.758;2022-12-07T07:40:16;99246.47;;;4.56;100.00
7157;BME280;3620;49.862;8.758;2022-12-07T07:42:46;99246.41;;;4.59;100.00
7157;BME280;3620;49.862;8.758;2022-12-07T07:45:12;99253.97;;;4.70;100.00
7157;BME280;3620;49.862;8.758;2022-12-07T07:47:39;99260.16;;;4.66;100.00
7157;BME280;3620;49.862;8.758;2022-12-07T07:50:06;99260.94;;;4.71;100.00
7157;BME280;3620;49.862;8.758;2022-12-07T07:52:33;99255.56;;;4.77;100.00
7157;BME280;3620;49.862;8.758;2022-12-07T07:54:59;99264.22;;;4.79;100.00
7157;BME280;3620;49.862;8.758;2022-12-07T07:57:26;99263.25;;;4.83;100.00
7157;BME280;3620;49.862;8.758;2022-12-07T07:59:54;99258.94;;;4.82;100.00
7157;BME280;3620;49.862;8.758;2022-12-07T08:02:21;99263.09;;;4.90;100.00
7157;BME280;3620;49.862;8.758;2022-12-07T08:04:48;99263.81;;;4.97;100.00
7157;BME280;3620;49.862;8.758;2022-12-07T08:07:15;99265.66;;;4.92;100.00
7157;BME280;3620;49.862;8.758;2022-12-07T08:09:41;99272.31;;;5.05;100.00
7157;BME280;3620;49.862;8.758;2022-12-07T08:12:08;99280.31;;;4.97;100.00
7157;BME280;3620;49.862;8.758;2022-12-07T08:14:34;99266.47;;;4.95;100.00
7157;BME280;3620;49.862;8.758;2022-12-07T08:17:02;99264.00;;;4.88;100.00
7157;BME280;3620;49.862;8.758;2022-12-07T08:19:29;99277.81;;;4.91;100.00
7157;BME280;3620;49.862;8.758;2022-12-07T08:21:55;99269.63;;;5.08;100.00
7157;BME280;3620;49.862;8.758;2022-12-07T08:24:22;99279.16;;;5.09;100.00
7157;BME280;3620;49.862;8.758;2022-12-07T08:26:50;99274.03;;;5.06;100.00
7157;BME280;3620;49.862;8.758;2022-12-07T08:29:17;99272.03;;;5.17;100.00
7157;BME280;3620;49.862;8.758;2022-12-07T08:31:43;99274.78;;;5.11;100.00
7157;BME280;3620;49.862;8.758;2022-12-07T08:34:12;99280.94;;;5.07;100.00
7157;BME280;3620;49.862;8.758;2022-12-07T08:36:39;99277.50;;;5.05;100.00
7157;BME280;3620;49.862;8.758;2022-12-07T08:39:05;99280.69;;;5.19;100.00
7157;BME280;3620;49.862;8.758;2022-12-07T08:41:32;99282.38;;;5.20;100.00
7157;BME280;3620;49.862;8.758;2022-12-07T08:43:58;99279.81;;;5.18;100.00
7157;BME280;3620;49.862;8.758;2022-12-07T08:46:27;99276.13;;;5.29;100.00
7157;BME280;3620;49.862;8.758;2022-12-07T08:49:02;99282.03;;;5.35;100.00
7157;BME280;3620;49.862;8.758;2022-12-07T08:51:31;99278.69;;;5.30;100.00
7157;BME280;3620;49.862;8.758;2022-12-07T08:53:59;99282.03;;;5.35;100.00
7157;BME280;3620;49.862;8.758;2022-12-07T08:56:27;99279.22;;;5.44;100.00
7157;BME280;3620;49.862;8.758;2022-12-07T08:58:54;99274.66;;;5.52;100.00
7157;BME280;3620;49.862;8.758;2022-12-07T09:01:20;99275.66;;;5.47;100.00
7157;BME280;3620;49.862;8.758;2022-12-07T09:03:47;99276.59;;;5.44;100.00
7157;BME280;3620;49.862;8.758;2022-12-07T09:06:13;99283.22;;;5.22;100.00
7157;BME280;3620;49.862;8.758;2022-12-07T09:08:46;99290.94;;;5.25;100.00
7157;BME280;3620;49.862;8.758;2022-12-07T09:11:13;99283.72;;;5.36;100.00
7157;BME280;3620;49.862;8.758;2022-12-07T09:13:40;99283.06;;;5.28;100.00
7157;BME280;3620;49.862;8.758;2022-12-07T09:16:06;99289.03;;;5.33;100.00
7157;BME280;3620;49.862;8.758;2022-12-07T09:18:33;99283.13;;;5.27;100.00
7157;BME280;3620;49.862;8.758;2022-12-07T09:21:00;99275.41;;;5.22;100.00
7157;BME280;3620;49.862;8.758;2022-12-07T09:23:26;99287.59;;;5.20;100.00
7157;BME280;3620;49.862;8.758;2022-12-07T09:25:54;99294.69;;;5.15;100.00
7157;BME280;3620;49.862;8.758;2022-12-07T09:28:20;99292.94;;;5.14;100.00
7157;BME280;3620;49.862;8.758;2022-12-07T09:30:47;99296.09;;;5.28;100.00
7157;BME280;3620;49.862;8.758;2022-12-07T09:33:14;99287.38;;;5.29;100.00
7157;BME280;3620;49.862;8.758;2022-12-07T09:35:44;99285.38;;;5.40;100.00
7157;BME280;3620;49.862;8.758;2022-12-07T09:38:10;99285.25;;;5.46;100.00
7157;BME280;3620;49.862;8.758;2022-12-07T09:40:37;99281.66;;;5.50;100.00
7157;BME280;3620;49.862;8.758;2022-12-07T09:43:08;99283.97;;;5.62;100.00
7157;BME280;3620;49.862;8.758;2022-12-07T09:45:38;99273.28;;;5.73;100.00
7157;BME280;3620;49.862;8.758;2022-12-07T09:48:08;99280.88;;;5.80;100.00
7157;BME280;3620;49.862;8.758;2022-12-07T09:50:39;99272.13;;;5.84;100.00
7157;BME280;3620;49.862;8.758;2022-12-07T09:53:09;99275.03;;;5.72;100.00
7157;BME280;3620;49.862;8.758;2022-12-07T09:55:40;99274.50;;;5.58;100.00
7157;BME280;3620;49.862;8.758;2022-12-07T09:58:12;99266.44;;;5.67;100.00
7157;BME280;3620;49.862;8.758;2022-12-07T10:00:43;99272.97;;;5.86;100.00
7157;BME280;3620;49.862;8.758;2022-12-07T10:03:11;99268.78;;;5.78;100.00
7157;BME280;3620;49.862;8.758;2022-12-07T10:05:41;99265.41;;;5.74;100.00
7157;BME280;3620;49.862;8.758;2022-12-07T10:08:11;99259.19;;;5.78;100.00
7157;BME280;3620;49.862;8.758;2022-12-07T10:10:39;99268.81;;;5.76;100.00
7157;BME280;3620;49.862;8.758;2022-12-07T10:13:08;99269.00;;;5.70;100.00
7157;BME280;3620;49.862;8.758;2022-12-07T10:15:57;99265.69;;;5.62;100.00
7157;BME280;3620;49.862;8.758;2022-12-07T10:18:30;99257.69;;;5.70;100.00
7157;BME280;3620;49.862;8.758;2022-12-07T10:21:09;99254.88;;;5.77;100.00
7157;BME280;3620;49.862;8.758;2022-12-07T10:23:38;99262.13;;;5.66;100.00
7157;BME280;3620;49.862;8.758;2022-12-07T10:26:21;99257.06;;;5.60;100.00
7157;BME280;3620;49.862;8.758;2022-12-07T10:28:52;99258.63;;;5.67;100.00
7157;BME280;3620;49.862;8.758;2022-12-07T10:31:22;99249.97;;;5.65;100.00
7157;BME280;3620;49.862;8.758;2022-12-07T10:33:51;99254.53;;;5.57;100.00
7157;BME280;3620;49.862;8.758;2022-12-07T10:36:21;99251.00;;;5.60;100.00
7157;BME280;3620;49.862;8.758;2022-12-07T10:38:49;99243.78;;;5.69;100.00
7157;BME280;3620;49.862;8.758;2022-12-07T10:41:16;99249.75;;;5.74;100.00
7157;BME280;3620;49.862;8.758;2022-12-07T10:43:47;99246.31;;;5.72;100.00
7157;BME280;3620;49.862;8.758;2022-12-07T10:46:45;99252.66;;;5.62;100.00
7157;BME280;3620;49.862;8.758;2022-12-07T10:49:38;99244.69;;;5.68;100.00
7157;BME280;3620;49.862;8.758;2022-12-07T10:52:12;99244.28;;;5.83;100.00
7157;BME280;3620;49.862;8.758;2022-12-07T10:54:46;99238.31;;;5.80;100.00
7157;BME280;3620;49.862;8.758;2022-12-07T10:57:25;99239.03;;;5.86;100.00
7157;BME280;3620;49.862;8.758;2022-12-07T11:00:18;99235.25;;;5.97;100.00
7157;BME280;3620;49.862;8.758;2022-12-07T11:03:08;99229.88;;;6.03;100.00
7157;BME280;3620;49.862;8.758;2022-12-07T11:05:45;99226.13;;;6.13;100.00
7157;BME280;3620;49.862;8.758;2022-12-07T11:08:21;99221.53;;;6.21;100.00
7157;BME280;3620;49.862;8.758;2022-12-07T11:10:55;99217.22;;;6.20;100.00
7157;BME280;3620;49.862;8.758;2022-12-07T11:13:30;99215.31;;;6.25;100.00
7157;BME280;3620;49.862;8.758;2022-12-07T11:16:19;99210.38;;;6.45;100.00
7157;BME280;3620;49.862;8.758;2022-12-07T11:18:57;99211.72;;;6.58;100.00
7157;BME280;3620;49.862;8.758;2022-12-07T11:21:31;99208.75;;;6.70;100.00
7157;BME280;3620;49.862;8.758;2022-12-07T11:24:06;99205.38;;;6.94;100.00
7157;BME280;3620;49.862;8.758;2022-12-07T11:26:47;99199.56;;;6.86;99.65
7157;BME280;3620;49.862;8.758;2022-12-07T11:29:38;99204.22;;;7.04;99.58
7157;BME280;3620;49.862;8.758;2022-12-07T11:32:15;99195.66;;;6.98;99.04
7157;BME280;3620;49.862;8.758;2022-12-07T11:34:54;99194.97;;;6.93;99.88
7157;BME280;3620;49.862;8.758;2022-12-07T11:37:28;99189.09;;;6.86;100.00
7157;BME280;3620;49.862;8.758;2022-12-07T11:40:00;99188.09;;;6.90;100.00
7157;BME280;3620;49.862;8.758;2022-12-07T11:42:30;99189.47;;;6.74;100.00
7157;BME280;3620;49.862;8.758;2022-12-07T11:45:03;99194.53;;;6.51;100.00
7157;BME280;3620;49.862;8.758;2022-12-07T11:47:40;99193.28;;;6.64;100.00
7157;BME280;3620;49.862;8.758;2022-12-07T11:50:21;99191.53;;;6.63;100.00
7157;BME280;3620;49.862;8.758;2022-12-07T11:52:53;99186.03;;;6.72;100.00
7157;BME280;3620;49.862;8.758;2022-12-07T11:55:27;99189.38;;;6.77;100.00
7157;BME280;3620;49.862;8.758;2022-12-07T11:58:03;99192.34;;;6.65;100.00
7157;BME280;3620;49.862;8.758;2022-12-07T12:00:30;99182.41;;;6.76;99.74
7157;BME280;3620;49.862;8.758;2022-12-07T12:03:00;99182.06;;;6.88;98.79
7157;BME280;3620;49.862;8.758;2022-12-07T12:05:29;99176.25;;;7.06;95.45
7157;BME280;3620;49.862;8.758;2022-12-07T12:08:02;99175.94;;;7.15;94.05
7157;BME280;3620;49.862;8.758;2022-12-07T12:10:54;99183.56;;;6.95;94.22
7157;BME280;3620;49.862;8.758;2022-12-07T12:16:51;99167.88;;;6.95;94.08
7157;BME280;3620;49.862;8.758;2022-12-07T12:19:29;99159.94;;;6.98;93.89
7157;BME280;3620;49.862;8.758;2022-12-07T12:22:06;99160.72;;;7.00;93.62
7157;BME280;3620;49.862;8.758;2022-12-07T12:24:37;99154.47;;;7.06;92.99
7157;BME280;3620;49.862;8.758;2022-12-07T12:27:08;99158.53;;;7.14;92.68
7157;BME280;3620;49.862;8.758;2022-12-07T12:29:37;99158.53;;;7.14;93.33
7157;BME280;3620;49.862;8.758;2022-12-07T12:32:11;99154.31;;;7.10;94.05
7157;BME280;3620;49.862;8.758;2022-12-07T12:34:41;99155.19;;;7.11;95.52
7157;BME280;3620;49.862;8.758;2022-12-07T12:37:41;99149.66;;;7.18;96.49
7157;BME280;3620;49.862;8.758;2022-12-07T12:40:42;99147.69;;;7.26;96.42
7157;BME280;3620;49.862;8.758;2022-12-07T12:46:38;99147.78;;;7.23;96.77
7157;BME280;3620;49.862;8.758;2022-12-07T12:49:37;99146.56;;;7.07;98.10
7157;BME280;3620;49.862;8.758;2022-12-07T12:55:17;99138.69;;;6.81;98.85
7157;BME280;3620;49.862;8.758;2022-12-07T12:57:47;99133.38;;;6.84;99.14
7157;BME280;3620;49.862;8.758;2022-12-07T13:00:19;99123.47;;;6.94;98.62
7157;BME280;3620;49.862;8.758;2022-12-07T13:02:48;99128.25;;;6.81;99.17
7157;BME280;3620;49.862;8.758;2022-12-07T13:05:18;99116.53;;;6.93;98.88
7157;BME280;3620;49.862;8.758;2022-12-07T13:07:54;99121.00;;;6.89;98.77
7157;BME280;3620;49.862;8.758;2022-12-07T13:10:40;99122.81;;;6.87;98.62
7157;BME280;3620;49.862;8.758;2022-12-07T13:13:32;99114.72;;;6.95;98.59
7157;BME280;3620;49.862;8.758;2022-12-07T13:22:43;99108.63;;;6.94;96.09
7157;BME280;3620;49.862;8.758;2022-12-07T13:25:12;99110.84;;;6.80;95.87
7157;BME280;3620;49.862;8.758;2022-12-07T13:27:50;99106.31;;;6.85;95.98
7157;BME280;3620;49.862;8.758;2022-12-07T13:30:20;99116.34;;;6.71;96.15
7157;BME280;3620;49.862;8.758;2022-12-07T13:32:52;99124.19;;;6.71;96.22
7157;BME280;3620;49.862;8.758;2022-12-07T13:35:33;99121.94;;;6.33;100.00
7157;BME280;3620;49.862;8.758;2022-12-07T13:38:02;99124.22;;;6.14;100.00
7157;BME280;3620;49.862;8.758;2022-12-07T13:40:30;99124.91;;;6.21;100.00
7157;BME280;3620;49.862;8.758;2022-12-07T13:42:59;99118.41;;;6.05;100.00
7157;BME280;3620;49.862;8.758;2022-12-07T13:45:28;99110.97;;;6.22;100.00
7157;BME280;3620;49.862;8.758;2022-12-07T13:48:14;99118.69;;;6.25;100.00
7157;BME280;3620;49.862;8.758;2022-12-07T13:50:42;99117.50;;;6.35;100.00
7157;BME280;3620;49.862;8.758;2022-12-07T13:53:13;99116.91;;;6.54;100.00
7157;BME280;3620;49.862;8.758;2022-12-07T13:55:45;99115.59;;;6.68;100.00
7157;BME280;3620;49.862;8.758;2022-12-07T13:58:14;99106.50;;;6.53;100.00